Time;durP1;ratioP1;P1;durP2;ratioP2;P2;SDS_P1;SDS_P2;PMS_P1;PMS_P2;Temp;Humidity;BMP_temperature;BMP_pressure;BME280_temperature;BME280_humidity;BME280_pressure;Samples;Min_cycle;Max_cycle;Signal;HPM_P1;HPM_P2
2021/12/04 00:02:24;;;;;;;3.25;2.95;;;;;;;;;;5055161;28;20438;-68
2021/12/04 00:04:51;;;;;;;3.13;2.83;;;;;;;;;;5049408;28;20438;-77
2021/12/04 00:07:17;;;;;;;3.20;2.90;;;;;;;;;;5039086;28;20427;-68
2021/12/04 00:09:46;;;;;;;3.28;2.97;;;;;;;;;;5053747;28;20901;-68
2021/12/04 00:12:12;;;;;;;3.40;3.10;;;;;;;;;;5057664;28;20415;-69
2021/12/04 00:14:37;;;;;;;3.47;3.17;;;;;;;;;;5058106;28;20407;-69
2021/12/04 00:17:04;;;;;;;3.35;3.05;;;;;;;;;;5057822;28;20515;-69
2021/12/04 00:19:29;;;;;;;4.13;3.72;;;;;;;;;;5055302;28;20395;-68
2021/12/04 00:21:55;;;;;;;3.33;3.03;;;;;;;;;;5058175;28;20502;-69
2021/12/04 00:24:22;;;;;;;3.60;3.28;;;;;;;;;;5056077;28;20431;-68
2021/12/04 00:26:48;;;;;;;3.38;3.08;;;;;;;;;;5054965;28;20401;-69
2021/12/04 00:29:13;;;;;;;3.65;3.20;;;;;;;;;;5053974;28;20443;-68
2021/12/04 00:31:44;;;;;;;3.63;3.33;;;;;;;;;;5055671;28;20841;-69
2021/12/04 00:34:10;;;;;;;3.60;3.30;;;;;;;;;;5057007;28;20479;-68
2021/12/04 00:49:57;;;;;;;4.90;4.40;;;;;;;;;;5056740;28;20515;-69
2021/12/04 00:52:22;;;;;;;4.80;4.40;;;;;;;;;;5056152;28;21004;-68
2021/12/04 00:54:48;;;;;;;4.37;3.97;;;;;;;;;;5056317;28;20427;-69
2021/12/04 00:57:13;;;;;;;4.80;4.30;;;;;;;;;;5057596;28;20426;-69
2021/12/04 00:59:38;;;;;;;4.43;4.03;;;;;;;;;;5055510;28;20418;-68
2021/12/04 01:02:04;;;;;;;4.37;3.97;;;;;;;;;;5054492;28;21004;-68
2021/12/04 01:04:30;;;;;;;4.82;3.95;;;;;;;;;;5055354;28;20493;-68
2021/12/04 01:06:55;;;;;;;4.83;3.93;;;;;;;;;;5032309;28;20392;-68
2021/12/04 01:09:22;;;;;;;4.40;4.00;;;;;;;;;;5056237;28;20513;-68
2021/12/04 01:11:48;;;;;;;11.00;10.00;;;;;;;;;;5057297;28;20407;-68
2021/12/04 01:14:15;;;;;;;8.38;7.57;;;;;;;;;;5056406;28;20407;-68
2021/12/04 01:16:40;;;;;;;5.93;5.35;;;;;;;;;;5057226;28;20434;-69
2021/12/04 01:19:05;;;;;;;5.10;4.60;;;;;;;;;;5052594;28;20423;-68
2021/12/04 01:21:31;;;;;;;5.20;4.70;;;;;;;;;;5054703;28;20446;-68
2021/12/04 01:23:56;;;;;;;4.93;4.43;;;;;;;;;;5054803;28;20606;-68
2021/12/04 01:26:23;;;;;;;5.40;4.57;;;;;;;;;;5054542;28;20404;-69
2021/12/04 01:28:48;;;;;;;4.60;4.20;;;;;;;;;;5056292;28;20785;-68
2021/12/04 01:31:13;;;;;;;4.47;4.00;;;;;;;;;;5056012;28;20432;-68
2021/12/04 01:33:39;;;;;;;4.37;3.80;;;;;;;;;;5052816;28;20458;-68
2021/12/04 01:36:04;;;;;;;4.17;3.67;;;;;;;;;;5053832;28;20399;-68
2021/12/04 01:38:29;;;;;;;3.70;3.40;;;;;;;;;;5054900;28;20478;-68
2021/12/04 01:40:55;;;;;;;4.50;3.93;;;;;;;;;;5056786;28;20449;-70
2021/12/04 01:43:20;;;;;;;4.27;3.87;;;;;;;;;;5056364;28;20414;-69
2021/12/04 01:45:46;;;;;;;3.97;3.67;;;;;;;;;;5052859;28;20409;-69
2021/12/04 01:48:11;;;;;;;4.20;3.80;;;;;;;;;;5056093;28;20446;-71
2021/12/04 01:50:37;;;;;;;3.83;3.47;;;;;;;;;;5054430;28;20426;-69
2021/12/04 01:53:03;;;;;;;4.23;3.70;;;;;;;;;;5053339;28;20399;-69
2021/12/04 01:55:30;;;;;;;4.03;3.63;;;;;;;;;;5052201;28;20415;-69
2021/12/04 01:57:55;;;;;;;4.32;3.92;;;;;;;;;;5055940;28;20404;-69
2021/12/04 02:00:21;;;;;;;4.20;3.80;;;;;;;;;;5054054;28;20498;-69
2021/12/04 02:02:47;;;;;;;4.97;4.18;;;;;;;;;;5052443;28;20427;-70
2021/12/04 02:05:12;;;;;;;4.57;3.80;;;;;;;;;;5040755;28;20502;-77
2021/12/04 02:07:38;;;;;;;4.20;3.80;;;;;;;;;;5051127;28;20423;-69
2021/12/04 02:10:04;;;;;;;3.83;3.42;;;;;;;;;;5057702;28;20411;-69
2021/12/04 02:12:29;;;;;;;4.50;4.07;;;;;;;;;;5057002;28;20407;-69
2021/12/04 02:14:55;;;;;;;4.00;3.47;;;;;;;;;;5058763;28;20399;-69
2021/12/04 02:17:20;;;;;;;3.53;3.23;;;;;;;;;;5059665;28;20415;-69
2021/12/04 02:19:46;;;;;;;3.50;3.20;;;;;;;;;;5060009;28;20785;-68
2021/12/04 02:22:12;;;;;;;3.78;3.42;;;;;;;;;;5059599;28;20489;-69
2021/12/04 02:24:37;;;;;;;4.00;3.60;;;;;;;;;;5059175;28;20689;-69
2021/12/04 02:27:03;;;;;;;3.93;3.50;;;;;;;;;;5056276;28;20460;-69
2021/12/04 02:29:28;;;;;;;3.47;3.10;;;;;;;;;;5057629;28;20423;-69
2021/12/04 02:31:55;;;;;;;3.53;3.23;;;;;;;;;;5058631;28;20466;-69
2021/12/04 02:34:25;;;;;;;3.55;3.25;;;;;;;;;;5056602;28;20399;-69
2021/12/04 02:36:50;;;;;;;3.47;3.17;;;;;;;;;;5058532;28;20418;-69
2021/12/04 02:39:23;;;;;;;3.67;3.20;;;;;;;;;;5058080;28;20407;-69
2021/12/04 02:41:48;;;;;;;4.00;3.60;;;;;;;;;;5057779;28;20398;-69
2021/12/04 02:44:14;;;;;;;3.47;3.17;;;;;;;;;;5055548;28;20392;-69
2021/12/04 02:46:39;;;;;;;3.73;3.43;;;;;;;;;;5056656;28;20396;-69
2021/12/04 02:49:06;;;;;;;4.00;3.60;;;;;;;;;;5058358;28;20446;-69
2021/12/04 02:51:31;;;;;;;4.15;3.75;;;;;;;;;;5058127;28;20471;-70
2021/12/04 02:53:57;;;;;;;3.97;3.57;;;;;;;;;;5058886;28;20475;-69
2021/12/04 02:56:25;;;;;;;3.58;3.28;;;;;;;;;;5058487;28;20482;-68
2021/12/04 02:58:54;;;;;;;3.92;3.40;;;;;;;;;;5059149;28;20491;-70
2021/12/04 03:01:19;;;;;;;3.50;3.20;;;;;;;;;;5055613;28;20884;-68
2021/12/04 03:03:44;;;;;;;3.30;3.00;;;;;;;;;;5057764;28;20418;-69
2021/12/04 03:06:10;;;;;;;9.37;8.40;;;;;;;;;;5043625;28;20423;-68
2021/12/04 03:08:35;;;;;;;61.77;41.03;;;;;;;;;;5057316;28;20482;-69
2021/12/04 03:11:01;;;;;;;32.83;23.33;;;;;;;;;;5058094;28;20526;-69
2021/12/04 03:13:26;;;;;;;22.73;17.17;;;;;;;;;;5059534;28;20897;-69
2021/12/04 03:15:59;;;;;;;12.43;10.90;;;;;;;;;;5056874;28;20407;-69
2021/12/04 03:18:24;;;;;;;8.60;7.40;;;;;;;;;;5074171;28;20399;-69
2021/12/04 03:20:52;;;;;;;6.70;6.00;;;;;;;;;;5054315;28;20400;-69
2021/12/04 03:23:26;;;;;;;5.30;4.80;;;;;;;;;;5057528;28;20391;-69
2021/12/04 03:25:55;;;;;;;4.93;4.35;;;;;;;;;;5055758;28;20469;-69
2021/12/04 03:28:20;;;;;;;4.17;3.77;;;;;;;;;;5059040;28;20528;-69
2021/12/04 03:30:51;;;;;;;4.13;3.70;;;;;;;;;;5058752;28;20478;-68
2021/12/04 03:41:12;;;;;;;3.58;3.28;;;;;;;;;;5056812;28;20452;-69
2021/12/04 03:43:38;;;;;;;4.00;3.60;;;;;;;;;;5056551;28;20474;-68
2021/12/04 03:46:06;;;;;;;3.83;3.40;;;;;;;;;;5056318;28;20557;-69
2021/12/04 03:50:57;;;;;;;3.60;3.30;;;;;;;;;;5057078;28;20406;-69
2021/12/04 03:53:23;;;;;;;4.53;4.13;;;;;;;;;;5056632;28;20392;-69
2021/12/04 03:55:50;;;;;;;4.27;3.67;;;;;;;;;;5056458;28;20406;-69
2021/12/04 03:58:15;;;;;;;4.40;4.00;;;;;;;;;;5058917;28;20434;-69
2021/12/04 04:00:40;;;;;;;5.00;4.60;;;;;;;;;;5058545;28;20431;-71
2021/12/04 04:03:06;;;;;;;5.37;4.87;;;;;;;;;;5058640;28;20415;-68
2021/12/04 04:05:31;;;;;;;5.50;5.00;;;;;;;;;;5039754;28;20430;-69
2021/12/04 04:07:57;;;;;;;5.20;4.80;;;;;;;;;;5054598;28;20427;-69
2021/12/04 04:10:22;;;;;;;5.27;4.83;;;;;;;;;;5055530;28;20810;-69
2021/12/04 04:12:48;;;;;;;5.13;4.63;;;;;;;;;;5057223;28;20982;-69
2021/12/04 04:15:13;;;;;;;4.68;4.28;;;;;;;;;;5070690;28;20411;-68
2021/12/04 04:17:42;;;;;;;5.10;4.63;;;;;;;;;;5054863;28;20839;-69
2021/12/04 04:20:12;;;;;;;5.47;5.07;;;;;;;;;;5057719;28;20411;-71
2021/12/04 04:22:37;;;;;;;5.30;4.90;;;;;;;;;;5054135;28;20861;-69
2021/12/04 04:25:03;;;;;;;6.37;5.87;;;;;;;;;;5055389;28;20427;-69
2021/12/04 04:27:28;;;;;;;6.35;5.85;;;;;;;;;;5054108;28;20404;-69
2021/12/04 04:29:53;;;;;;;5.90;5.40;;;;;;;;;;5055222;28;20483;-69
2021/12/04 04:32:19;;;;;;;5.40;5.00;;;;;;;;;;5055833;28;20479;-69
2021/12/04 04:34:51;;;;;;;5.20;4.80;;;;;;;;;;5055369;28;20403;-69
2021/12/04 05:13:00;;;;;;;12.90;11.07;;;;;;;;;;5053496;28;21176;-68
2021/12/04 05:14:59;;;;;;;12.52;11.13;;;;;;;;;;5049262;28;20453;-68
2021/12/04 05:20:12;;;;;;;9.20;8.03;;;;;;;;;;5053664;28;20418;-69
2021/12/04 05:22:37;;;;;;;10.23;8.10;;;;;;;;;;5055525;28;20426;-69
2021/12/04 05:25:03;;;;;;;10.23;8.13;;;;;;;;;;5053723;28;20396;-69
2021/12/04 05:27:28;;;;;;;9.73;7.72;;;;;;;;;;5056509;28;20427;-69
2021/12/04 05:29:54;;;;;;;10.33;8.23;;;;;;;;;;5056791;28;20446;-69
2021/12/04 05:32:19;;;;;;;13.80;10.03;;;;;;;;;;5052868;28;20407;-69
2021/12/04 05:34:45;;;;;;;15.57;11.33;;;;;;;;;;5053867;28;20410;-68
2021/12/04 05:37:10;;;;;;;14.90;11.60;;;;;;;;;;5054737;28;20473;-70
2021/12/04 05:39:35;;;;;;;13.30;10.73;;;;;;;;;;5056507;28;20524;-69
2021/12/04 05:42:01;;;;;;;12.40;9.37;;;;;;;;;;5056042;28;20429;-71
2021/12/04 05:44:28;;;;;;;10.97;8.97;;;;;;;;;;5054240;28;20418;-69
2021/12/04 05:46:59;;;;;;;10.60;8.63;;;;;;;;;;5054181;28;20403;-68
2021/12/04 05:49:28;;;;;;;9.05;7.88;;;;;;;;;;5055882;28;20912;-68
2021/12/04 05:57:06;;;;;;;7.57;6.78;;;;;;;;;;5053269;28;20400;-69
2021/12/04 05:59:32;;;;;;;7.70;7.00;;;;;;;;;;5054840;28;20431;-69
2021/12/04 06:01:57;;;;;;;8.10;7.30;;;;;;;;;;5054449;28;20406;-69
2021/12/04 06:04:23;;;;;;;7.72;7.03;;;;;;;;;;5053630;28;20911;-69
2021/12/04 06:06:49;;;;;;;7.55;6.75;;;;;;;;;;5038077;28;20443;-68
2021/12/04 06:09:14;;;;;;;7.63;6.93;;;;;;;;;;5054185;28;20868;-69
2021/12/04 06:11:39;;;;;;;9.47;8.47;;;;;;;;;;5054954;28;20399;-69
2021/12/04 06:14:05;;;;;;;10.30;9.40;;;;;;;;;;5055849;28;20399;-70
2021/12/04 06:16:31;;;;;;;9.63;8.60;;;;;;;;;;5055353;28;20456;-69
2021/12/04 06:18:58;;;;;;;8.93;8.02;;;;;;;;;;5055256;28;20415;-69
2021/12/04 06:24:08;;;;;;;7.28;6.57;;;;;;;;;;5054237;28;20849;-69
2021/12/04 06:26:34;;;;;;;7.35;6.68;;;;;;;;;;5054957;28;20495;-69
2021/12/04 06:29:00;;;;;;;7.20;6.38;;;;;;;;;;5051821;28;20980;-69
2021/12/04 06:31:25;;;;;;;6.80;6.20;;;;;;;;;;5052634;28;20403;-69
2021/12/04 06:33:51;;;;;;;7.88;7.07;;;;;;;;;;5053278;28;20406;-69
2021/12/04 06:36:17;;;;;;;10.30;9.30;;;;;;;;;;5053338;28;20406;-69
2021/12/04 06:38:42;;;;;;;12.37;11.07;;;;;;;;;;5053791;28;20411;-69
2021/12/04 06:41:08;;;;;;;12.37;11.07;;;;;;;;;;5053527;28;20481;-68
2021/12/04 06:43:33;;;;;;;16.92;15.32;;;;;;;;;;5052953;28;20407;-69
2021/12/04 06:46:00;;;;;;;17.40;15.60;;;;;;;;;;5051705;28;20833;-69
2021/12/04 06:48:34;;;;;;;16.00;14.30;;;;;;;;;;5056112;28;20531;-68
2021/12/04 06:51:05;;;;;;;17.00;14.80;;;;;;;;;;5053809;28;20413;-68
2021/12/04 06:53:38;;;;;;;14.40;12.63;;;;;;;;;;5051538;28;20396;-69
2021/12/04 06:56:06;;;;;;;13.82;11.30;;;;;;;;;;5057918;28;20404;-68
2021/12/04 06:58:31;;;;;;;10.57;9.40;;;;;;;;;;5071749;28;20415;-68
2021/12/04 07:00:56;;;;;;;9.87;8.43;;;;;;;;;;5055778;28;20832;-68
2021/12/04 07:03:22;;;;;;;10.00;9.00;;;;;;;;;;5053520;28;20411;-69
2021/12/04 07:05:48;;;;;;;10.37;9.27;;;;;;;;;;5030044;28;20443;-70
2021/12/04 07:08:13;;;;;;;7.97;7.18;;;;;;;;;;5058692;28;20959;-69
2021/12/04 07:10:39;;;;;;;7.47;6.78;;;;;;;;;;5057032;28;20403;-69
2021/12/04 07:13:05;;;;;;;6.40;5.80;;;;;;;;;;5054587;28;20452;-68
2021/12/04 07:15:31;;;;;;;6.15;5.47;;;;;;;;;;5055887;28;20399;-69
2021/12/04 07:17:57;;;;;;;5.32;4.70;;;;;;;;;;5058636;28;20420;-69
2021/12/04 07:20:23;;;;;;;5.00;4.50;;;;;;;;;;5058668;28;20411;-69
2021/12/04 07:22:48;;;;;;;5.50;4.90;;;;;;;;;;5059178;28;20400;-69
2021/12/04 07:25:14;;;;;;;6.05;5.15;;;;;;;;;;5059426;28;20849;-69
2021/12/04 07:27:39;;;;;;;7.20;5.87;;;;;;;;;;5055550;28;20407;-68
2021/12/04 07:30:06;;;;;;;8.33;6.47;;;;;;;;;;5054186;28;20418;-69
2021/12/04 07:32:31;;;;;;;8.32;6.65;;;;;;;;;;5057040;28;20411;-68
2021/12/04 07:34:57;;;;;;;7.87;6.57;;;;;;;;;;5059054;28;20925;-71
2021/12/04 07:37:22;;;;;;;7.30;6.00;;;;;;;;;;5059027;28;20491;-69
2021/12/04 07:39:48;;;;;;;8.17;6.80;;;;;;;;;;5072996;28;20399;-69
2021/12/04 07:42:13;;;;;;;6.67;5.93;;;;;;;;;;5054738;28;20901;-69
2021/12/04 07:44:38;;;;;;;6.53;5.53;;;;;;;;;;5055700;28;20395;-69
2021/12/04 07:47:04;;;;;;;9.10;7.63;;;;;;;;;;5056527;28;20410;-69
2021/12/04 07:49:29;;;;;;;7.67;6.57;;;;;;;;;;5056005;28;20411;-69
2021/12/04 07:51:54;;;;;;;6.23;5.63;;;;;;;;;;5054300;28;20840;-69
2021/12/04 07:54:20;;;;;;;5.27;4.37;;;;;;;;;;5055845;28;20409;-68
2021/12/04 07:56:45;;;;;;;7.50;5.33;;;;;;;;;;5057918;28;20403;-69
2021/12/04 07:59:10;;;;;;;7.20;5.73;;;;;;;;;;5058546;28;20399;-69
2021/12/04 08:01:36;;;;;;;6.03;5.00;;;;;;;;;;5057993;28;20482;-69
2021/12/04 08:04:02;;;;;;;5.00;4.50;;;;;;;;;;5056235;28;20987;-70
2021/12/04 08:06:27;;;;;;;4.80;4.30;;;;;;;;;;5036507;28;20415;-69
2021/12/04 08:08:58;;;;;;;4.83;3.73;;;;;;;;;;5057030;28;20467;-69
2021/12/04 08:11:23;;;;;;;4.80;3.83;;;;;;;;;;5054526;28;20400;-68
2021/12/04 08:13:49;;;;;;;4.27;3.60;;;;;;;;;;5054831;28;20469;-69
2021/12/04 08:16:14;;;;;;;4.40;3.87;;;;;;;;;;5057150;28;20435;-69
2021/12/04 08:18:39;;;;;;;5.60;4.60;;;;;;;;;;5057284;28;20400;-68
2021/12/04 08:21:05;;;;;;;7.87;6.63;;;;;;;;;;5054523;28;20470;-69
2021/12/04 08:23:30;;;;;;;7.60;6.20;;;;;;;;;;5055643;28;20399;-69
2021/12/04 08:25:56;;;;;;;6.27;5.30;;;;;;;;;;5056356;28;20418;-70
2021/12/04 08:28:22;;;;;;;6.07;5.03;;;;;;;;;;5055017;28;20395;-69
2021/12/04 08:30:47;;;;;;;8.57;6.53;;;;;;;;;;5055189;28;20475;-69
2021/12/04 08:33:13;;;;;;;6.43;5.70;;;;;;;;;;5056675;28;20403;-69
2021/12/04 08:35:39;;;;;;;6.90;5.88;;;;;;;;;;5057244;28;20774;-69
2021/12/04 08:38:05;;;;;;;7.05;5.75;;;;;;;;;;5057501;28;20396;-69
2021/12/04 08:40:31;;;;;;;6.05;5.07;;;;;;;;;;5056708;28;20449;-69
2021/12/04 08:42:56;;;;;;;6.07;5.43;;;;;;;;;;5054949;28;20411;-68
2021/12/04 08:45:22;;;;;;;5.72;5.13;;;;;;;;;;5054196;28;20415;-69
2021/12/04 08:47:47;;;;;;;5.70;5.07;;;;;;;;;;5053859;28;20399;-69
2021/12/04 08:50:15;;;;;;;4.97;4.45;;;;;;;;;;5052514;28;20457;-69
2021/12/04 08:52:41;;;;;;;6.03;5.30;;;;;;;;;;5054953;28;20404;-69
2021/12/04 08:55:07;;;;;;;5.93;5.20;;;;;;;;;;5053542;28;20425;-69
2021/12/04 08:57:32;;;;;;;5.00;4.50;;;;;;;;;;5053811;28;20395;-69
2021/12/04 08:59:58;;;;;;;4.53;4.13;;;;;;;;;;5053422;28;20517;-69
2021/12/04 09:02:23;;;;;;;5.80;4.63;;;;;;;;;;5052993;28;20411;-69
2021/12/04 09:04:49;;;;;;;4.10;3.70;;;;;;;;;;5053185;28;20423;-69
2021/12/04 09:07:15;;;;;;;4.80;4.32;;;;;;;;;;5043748;28;20569;-69
2021/12/04 09:09:40;;;;;;;5.10;4.50;;;;;;;;;;5054733;28;20501;-69
2021/12/04 09:12:08;;;;;;;4.80;3.80;;;;;;;;;;5055010;28;20482;-69
2021/12/04 09:14:35;;;;;;;4.70;4.18;;;;;;;;;;5053098;28;20407;-69
2021/12/04 09:17:01;;;;;;;4.32;3.92;;;;;;;;;;5054716;28;20993;-69
2021/12/04 09:19:27;;;;;;;4.70;4.20;;;;;;;;;;5055754;28;20391;-70
2021/12/04 09:21:53;;;;;;;4.45;4.03;;;;;;;;;;5072725;28;20614;-69
2021/12/04 09:24:25;;;;;;;5.03;4.00;;;;;;;;;;5056148;28;20407;-69
2021/12/04 10:01:59;;;;;;;6.57;6.03;;;;;;;;;;5055058;28;20461;-70
2021/12/04 10:33:56;;;;;;;6.15;5.60;;;;;;;;;;5058160;28;20931;-73
2021/12/04 10:36:30;;;;;;;7.00;6.13;;;;;;;;;;5056602;28;20396;-72
2021/12/04 10:38:56;;;;;;;5.85;5.35;;;;;;;;;;5056397;28;20797;-72
2021/12/04 10:41:31;;;;;;;5.17;4.67;;;;;;;;;;5056549;28;20405;-72
2021/12/04 10:44:07;;;;;;;6.10;5.50;;;;;;;;;;5057539;28;20471;-72
2021/12/04 10:46:33;;;;;;;6.25;5.63;;;;;;;;;;5058206;28;20404;-72
2021/12/04 10:49:12;;;;;;;5.57;5.07;;;;;;;;;;5058650;28;20434;-72
2021/12/04 10:52:01;;;;;;;5.57;5.03;;;;;;;;;;5056853;28;20474;-72
2021/12/04 10:54:31;;;;;;;7.43;6.45;;;;;;;;;;5058452;28;20395;-72
2021/12/04 10:59:41;;;;;;;6.50;5.88;;;;;;;;;;5058261;28;20419;-72
2021/12/04 11:02:23;;;;;;;7.05;6.35;;;;;;;;;;5055213;28;20971;-72
2021/12/04 11:04:53;;;;;;;6.70;6.00;;;;;;;;;;5057735;28;20398;-72
2021/12/04 11:24:01;;;;;;;5.50;5.00;;;;;;;;;;5057461;28;20395;-72
2021/12/04 11:40:05;;;;;;;5.30;4.80;;;;;;;;;;5055810;28;20392;-72
2021/12/04 11:47:56;;;;;;;5.97;5.38;;;;;;;;;;5044815;28;20399;-72
2021/12/04 11:50:24;;;;;;;6.55;5.88;;;;;;;;;;5057254;28;20410;-72
2021/12/04 11:52:55;;;;;;;6.47;5.88;;;;;;;;;;5055496;28;20982;-72
2021/12/04 11:55:21;;;;;;;6.20;5.60;;;;;;;;;;5054007;28;20403;-73
2021/12/04 11:57:47;;;;;;;6.15;5.65;;;;;;;;;;5053361;28;21243;-73
2021/12/04 12:00:25;;;;;;;5.90;5.40;;;;;;;;;;5057717;28;20491;-72
2021/12/04 12:02:52;;;;;;;7.28;6.20;;;;;;;;;;5056550;28;20411;-72
2021/12/04 12:05:19;;;;;;;7.97;7.17;;;;;;;;;;5046802;28;20426;-74
2021/12/04 12:07:54;;;;;;;7.70;6.88;;;;;;;;;;5047026;28;20403;-72
2021/12/04 12:10:19;;;;;;;6.80;6.20;;;;;;;;;;5054339;28;20415;-72
2021/12/04 12:12:47;;;;;;;7.50;6.70;;;;;;;;;;5053171;28;20430;-72
2021/12/04 12:15:23;;;;;;;6.28;5.68;;;;;;;;;;5055946;28;20392;-72
2021/12/04 12:17:49;;;;;;;5.75;5.18;;;;;;;;;;5055208;28;20450;-72
2021/12/04 12:20:25;;;;;;;5.47;4.97;;;;;;;;;;5054065;28;20834;-73
2021/12/04 12:23:01;;;;;;;6.00;5.40;;;;;;;;;;5054724;28;20403;-72
2021/12/04 12:25:42;;;;;;;6.05;5.45;;;;;;;;;;5053977;28;20387;-72
2021/12/04 12:34:00;;;;;;;5.10;4.60;;;;;;;;;;5056676;28;20979;-72
2021/12/04 12:36:30;;;;;;;4.45;4.05;;;;;;;;;;5056694;28;20894;-73
2021/12/04 12:39:00;;;;;;;6.35;5.75;;;;;;;;;;5053653;28;20451;-73
2021/12/04 12:41:38;;;;;;;5.85;5.32;;;;;;;;;;5054962;28;20469;-73
2021/12/04 12:44:26;;;;;;;5.72;5.22;;;;;;;;;;5057112;28;20415;-73
2021/12/04 12:46:54;;;;;;;5.37;4.87;;;;;;;;;;5053388;28;20423;-73
2021/12/04 12:49:22;;;;;;;6.18;5.57;;;;;;;;;;5053511;28;20409;-73
2021/12/04 12:51:56;;;;;;;6.05;5.47;;;;;;;;;;5056202;28;20759;-73
2021/12/04 12:54:24;;;;;;;6.88;6.18;;;;;;;;;;5055315;28;20506;-72
2021/12/04 12:56:56;;;;;;;7.28;6.57;;;;;;;;;;5057065;28;20418;-73
2021/12/04 12:59:33;;;;;;;7.00;6.30;;;;;;;;;;5055138;28;20897;-73
2021/12/04 13:13:29;;;;;;;8.57;7.78;;;;;;;;;;5053542;28;20402;-73
2021/12/04 13:16:00;;;;;;;7.45;6.75;;;;;;;;;;5069423;28;20418;-73
2021/12/04 13:18:26;;;;;;;6.55;5.95;;;;;;;;;;5053658;28;20399;-73
2021/12/04 13:20:52;;;;;;;5.82;5.30;;;;;;;;;;5053792;28;20447;-73
2021/12/04 13:23:22;;;;;;;5.33;4.83;;;;;;;;;;5056361;28;20494;-73
2021/12/04 13:25:55;;;;;;;6.50;5.83;;;;;;;;;;5054420;28;20408;-73
2021/12/04 13:28:22;;;;;;;6.47;5.88;;;;;;;;;;5054052;28;20403;-73
2021/12/04 13:30:47;;;;;;;7.28;6.57;;;;;;;;;;5054308;28;20392;-73
2021/12/04 13:33:12;;;;;;;8.70;7.80;;;;;;;;;;5054921;28;20889;-73
2021/12/04 13:35:38;;;;;;;7.53;6.72;;;;;;;;;;5054282;28;20422;-73
2021/12/04 13:38:04;;;;;;;7.57;6.87;;;;;;;;;;5054931;28;20400;-72
2021/12/04 13:40:29;;;;;;;6.93;6.20;;;;;;;;;;5053680;28;20394;-71
2021/12/04 13:42:55;;;;;;;6.10;5.43;;;;;;;;;;5054688;28;20435;-72
2021/12/04 13:45:21;;;;;;;6.40;5.80;;;;;;;;;;5054928;28;20468;-71
2021/12/04 13:47:54;;;;;;;6.77;6.17;;;;;;;;;;5056847;28;20785;-72
2021/12/04 13:53:16;;;;;;;7.30;6.57;;;;;;;;;;5056953;28;20399;-72
2021/12/04 13:55:42;;;;;;;8.93;7.97;;;;;;;;;;5055815;28;20508;-71
2021/12/04 13:58:08;;;;;;;8.35;7.38;;;;;;;;;;5056811;28;20435;-71
2021/12/04 14:00:33;;;;;;;7.60;6.90;;;;;;;;;;5057381;28;20427;-71
2021/12/04 14:02:59;;;;;;;8.47;7.60;;;;;;;;;;5056391;28;20466;-72
2021/12/04 14:05:25;;;;;;;9.05;8.25;;;;;;;;;;5058310;28;20407;-72
2021/12/04 14:07:53;;;;;;;9.32;8.32;;;;;;;;;;5042876;28;20724;-74
2021/12/04 14:10:21;;;;;;;9.77;8.88;;;;;;;;;;5050891;28;20435;-72
2021/12/04 14:12:47;;;;;;;9.90;9.00;;;;;;;;;;5057686;28;20410;-72
2021/12/04 14:15:14;;;;;;;9.97;9.07;;;;;;;;;;5057752;28;20407;-72
2021/12/04 14:17:39;;;;;;;10.27;9.27;;;;;;;;;;5058308;28;20399;-72
2021/12/04 14:20:06;;;;;;;10.70;9.70;;;;;;;;;;5060549;28;20422;-72
2021/12/04 14:22:31;;;;;;;10.87;9.73;;;;;;;;;;5058801;28;20481;-72
2021/12/04 14:24:59;;;;;;;11.03;9.93;;;;;;;;;;5059791;28;20797;-72
2021/12/04 14:27:28;;;;;;;10.45;9.35;;;;;;;;;;5056243;28;20395;-72
2021/12/04 14:29:55;;;;;;;10.38;9.38;;;;;;;;;;5058809;28;20399;-72
2021/12/04 14:32:25;;;;;;;10.80;9.70;;;;;;;;;;5057677;28;20438;-72
2021/12/04 14:35:10;;;;;;;11.23;10.13;;;;;;;;;;5059846;28;20905;-72
2021/12/04 14:37:36;;;;;;;11.05;9.85;;;;;;;;;;5056348;28;20431;-72
2021/12/04 14:40:03;;;;;;;11.37;10.20;;;;;;;;;;5056376;28;20392;-72
2021/12/04 14:42:30;;;;;;;11.43;10.32;;;;;;;;;;5059388;28;20403;-71
2021/12/04 14:44:55;;;;;;;10.90;9.90;;;;;;;;;;5059146;28;20472;-72
2021/12/04 14:47:21;;;;;;;11.77;10.23;;;;;;;;;;5055630;28;20494;-72
2021/12/04 14:49:49;;;;;;;11.60;10.50;;;;;;;;;;5058491;28;20399;-72
2021/12/04 14:52:19;;;;;;;11.93;10.77;;;;;;;;;;5058286;28;20407;-72
2021/12/04 14:54:44;;;;;;;11.88;10.68;;;;;;;;;;5059806;28;20423;-72
2021/12/04 14:57:14;;;;;;;12.47;11.27;;;;;;;;;;5059845;28;20407;-71
2021/12/04 14:59:40;;;;;;;12.60;11.40;;;;;;;;;;5055164;28;20482;-72
2021/12/04 15:02:16;;;;;;;14.27;12.77;;;;;;;;;;5057840;28;20562;-72
2021/12/04 15:04:41;;;;;;;13.00;11.70;;;;;;;;;;5059139;28;20411;-72
2021/12/04 15:07:16;;;;;;;13.18;11.20;;;;;;;;;;5056645;28;20407;-72
2021/12/04 15:09:41;;;;;;;11.82;10.63;;;;;;;;;;5050787;28;21288;-72
2021/12/04 15:12:07;;;;;;;12.50;11.20;;;;;;;;;;5077969;28;21025;-73
2021/12/04 15:14:33;;;;;;;13.27;11.87;;;;;;;;;;5079694;28;20437;-72
2021/12/04 15:17:05;;;;;;;12.32;11.02;;;;;;;;;;5078090;28;20463;-72
2021/12/04 15:19:41;;;;;;;12.98;11.52;;;;;;;;;;5078207;28;20394;-72
2021/12/04 15:22:13;;;;;;;14.13;12.63;;;;;;;;;;5077905;28;20439;-72
2021/12/04 15:24:39;;;;;;;12.85;11.52;;;;;;;;;;5075115;28;20488;-72
2021/12/04 15:27:06;;;;;;;14.77;13.27;;;;;;;;;;5075256;28;20424;-73
2021/12/04 15:29:33;;;;;;;12.77;11.50;;;;;;;;;;5076629;28;20483;-72
2021/12/04 15:32:00;;;;;;;14.98;13.40;;;;;;;;;;5079679;28;20401;-73
2021/12/04 15:34:30;;;;;;;17.23;15.52;;;;;;;;;;5077511;28;20478;-72
2021/12/04 15:37:01;;;;;;;16.77;15.07;;;;;;;;;;5079100;28;20883;-72
2021/12/04 15:39:34;;;;;;;18.70;15.75;;;;;;;;;;5075329;28;20390;-72
2021/12/04 15:42:19;;;;;;;18.63;15.85;;;;;;;;;;5077500;28;20398;-72
2021/12/04 15:44:57;;;;;;;16.93;14.43;;;;;;;;;;5078296;28;20525;-72
2021/12/04 15:53:13;;;;;;;22.20;18.52;;;;;;;;;;5063502;28;20403;-72
2021/12/04 15:55:40;;;;;;;24.45;18.90;;;;;;;;;;5074688;28;20405;-72
2021/12/04 15:58:08;;;;;;;22.13;19.10;;;;;;;;;;5076309;28;20487;-72
2021/12/04 16:00:34;;;;;;;20.77;18.05;;;;;;;;;;5074242;28;20390;-72
2021/12/04 16:03:01;;;;;;;20.15;17.95;;;;;;;;;;5076793;28;20463;-71
2021/12/04 16:05:28;;;;;;;20.75;17.75;;;;;;;;;;5077013;28;20405;-71
2021/12/04 16:08:07;;;;;;;19.25;16.83;;;;;;;;;;5063810;28;21289;-72
2021/12/04 16:10:33;;;;;;;18.67;16.70;;;;;;;;;;5074646;28;20398;-71
2021/12/04 16:12:59;;;;;;;16.40;14.70;;;;;;;;;;5074197;28;20977;-71
2021/12/04 16:15:25;;;;;;;15.73;14.13;;;;;;;;;;5075806;28;20409;-71
2021/12/04 16:17:50;;;;;;;16.83;14.55;;;;;;;;;;5078466;28;20539;-71
2021/12/04 16:20:19;;;;;;;15.30;13.70;;;;;;;;;;5078858;28;20837;-71
2021/12/04 16:22:47;;;;;;;13.63;12.25;;;;;;;;;;5075193;28;20405;-70
2021/12/04 16:25:24;;;;;;;15.82;13.35;;;;;;;;;;5078867;28;20496;-71
2021/12/04 16:35:42;;;;;;;12.23;11.02;;;;;;;;;;5078889;28;20409;-71
2021/12/04 16:38:13;;;;;;;11.45;10.38;;;;;;;;;;5073724;28;20393;-71
2021/12/04 16:40:40;;;;;;;12.20;11.00;;;;;;;;;;5074325;28;20401;-71
2021/12/04 16:43:09;;;;;;;11.40;10.30;;;;;;;;;;5077956;28;20437;-71
2021/12/04 16:45:36;;;;;;;11.05;9.95;;;;;;;;;;5076003;28;20483;-72
2021/12/04 16:48:06;;;;;;;12.73;11.43;;;;;;;;;;5076613;28;20437;-71
2021/12/04 16:50:46;;;;;;;11.98;10.85;;;;;;;;;;5078461;28;20484;-72
2021/12/04 16:58:28;;;;;;;14.37;12.87;;;;;;;;;;5074067;28;20468;-71
2021/12/04 17:00:54;;;;;;;25.25;20.10;;;;;;;;;;5077102;28;20501;-71
2021/12/04 17:03:20;;;;;;;18.10;15.98;;;;;;;;;;5078362;28;20504;-71
2021/12/04 17:05:46;;;;;;;26.38;20.63;;;;;;;;;;5076525;28;20413;-71
2021/12/04 17:08:12;;;;;;;17.02;14.73;;;;;;;;;;5046548;28;20394;-72
2021/12/04 17:10:37;;;;;;;16.48;14.48;;;;;;;;;;5055505;28;20474;-71
2021/12/04 17:13:04;;;;;;;17.77;15.57;;;;;;;;;;5055520;28;20403;-71
2021/12/04 17:15:30;;;;;;;16.35;14.05;;;;;;;;;;5055341;28;20976;-71
2021/12/04 17:17:57;;;;;;;19.48;16.05;;;;;;;;;;5054006;28;20959;-71
2021/12/04 17:20:22;;;;;;;15.63;12.52;;;;;;;;;;5057593;28;20427;-71
2021/12/04 17:22:49;;;;;;;17.20;13.00;;;;;;;;;;5057249;28;20435;-71
2021/12/04 17:25:15;;;;;;;17.10;12.52;;;;;;;;;;5054454;28;20418;-71
2021/12/04 17:27:41;;;;;;;14.17;11.57;;;;;;;;;;5053218;28;20437;-71
2021/12/04 17:30:07;;;;;;;15.33;12.53;;;;;;;;;;5053026;28;21044;-71
2021/12/04 17:32:33;;;;;;;14.85;13.13;;;;;;;;;;5056936;28;20395;-70
2021/12/04 17:34:58;;;;;;;14.93;12.45;;;;;;;;;;5057386;28;20477;-71
2021/12/04 17:37:28;;;;;;;14.87;12.57;;;;;;;;;;5056995;28;20403;-71
2021/12/04 17:39:54;;;;;;;13.80;12.00;;;;;;;;;;5054820;28;20399;-71
2021/12/04 17:42:20;;;;;;;15.25;12.88;;;;;;;;;;5029808;28;20409;-71
2021/12/04 17:44:45;;;;;;;14.07;12.57;;;;;;;;;;5061558;28;20423;-71
2021/12/04 17:47:10;;;;;;;15.07;12.10;;;;;;;;;;5053322;28;20470;-71
2021/12/04 17:49:36;;;;;;;24.17;18.00;;;;;;;;;;5052622;28;20470;-71
2021/12/04 17:52:01;;;;;;;17.13;14.40;;;;;;;;;;5052801;28;20434;-71
2021/12/04 17:54:27;;;;;;;16.02;13.52;;;;;;;;;;5053901;28;20418;-72
2021/12/04 17:56:53;;;;;;;16.67;13.40;;;;;;;;;;5052226;28;20403;-71
2021/12/04 17:59:19;;;;;;;15.97;13.10;;;;;;;;;;5053673;28;20392;-71
2021/12/04 18:01:49;;;;;;;14.30;12.25;;;;;;;;;;5055742;28;20403;-71
2021/12/04 18:04:16;;;;;;;16.20;14.48;;;;;;;;;;5053137;28;20410;-72
2021/12/04 18:06:42;;;;;;;13.77;12.38;;;;;;;;;;5056608;28;20489;-72
2021/12/04 18:09:09;;;;;;;14.90;13.32;;;;;;;;;;5048832;28;20554;-72